Time;durP1;ratioP1;P1;durP2;ratioP2;P2;SDS_P1;SDS_P2;PMS_P1;PMS_P2;Temp;Humidity;BMP_temperature;BMP_pressure;BME280_temperature;BME280_humidity;BME280_pressure;Samples;Min_cycle;Max_cycle;Signal;HPM_P1;HPM_P2
2022/03/19 00:01:21;;;;;;;;;;;;;;;-144.19;100.00;79903.28;5034204;28;19932;-85
2022/03/19 00:03:48;;;;;;;;;;;;;;;-144.19;100.00;79875.69;5043939;28;19929;-85
2022/03/19 00:06:15;;;;;;;;;;;;;;;-144.19;100.00;79887.53;5070922;28;19929;-86
2022/03/19 00:08:45;;;;;;;;;;;;;;;-144.19;100.00;79895.41;5053395;28;19987;-85
2022/03/19 00:11:12;;;;;;;;;;;;;;;-144.19;100.00;79881.63;5052447;28;19924;-86
2022/03/19 00:13:42;;;;;;;;;;;;;;;-144.19;100.00;79899.34;5052730;28;19994;-85
2022/03/19 00:16:09;;;;;;;;;;;;;;;-144.19;100.00;79883.59;5069227;28;19924;-85
2022/03/19 00:18:37;;;;;;;;;;;;;;;-144.19;100.00;79879.66;5065871;28;19950;-85
2022/03/19 00:21:04;;;;;;;;;;;;;;;-144.19;100.00;79877.69;5071690;28;19928;-86
2022/03/19 00:23:34;;;;;;;;;;;;;;;-144.19;100.00;79875.69;5070103;28;19924;-86
2022/03/19 00:26:01;;;;;;;;;;;;;;;-144.19;100.00;79871.75;5086621;28;19929;-85
2022/03/19 00:28:28;;;;;;;;;;;;;;;-144.19;100.00;79867.81;5069860;28;19956;-85
2022/03/19 00:30:56;;;;;;;;;;;;;;;-144.19;100.00;79883.59;5069453;28;19980;-86
2022/03/19 00:33:24;;;;;;;;;;;;;;;-144.19;100.00;79899.34;5049584;28;20278;-86
2022/03/19 00:35:51;;;;;;;;;;;;;;;-144.19;100.00;79895.41;5032392;28;19925;-86
2022/03/19 00:38:18;;;;;;;;;;;;;;;-144.19;100.00;79891.47;5049057;28;20011;-86
2022/03/19 00:40:45;;;;;;;;;;;;;;;-144.19;100.00;79897.38;5055107;28;19939;-85
2022/03/19 00:43:12;;;;;;;;;;;;;;;-144.19;100.00;79897.38;5073180;28;19925;-85
2022/03/19 00:45:39;;;;;;;;;;;;;;;-144.19;100.00;79905.25;5071656;28;19931;-85
2022/03/19 00:48:09;;;;;;;;;;;;;;;-144.19;100.00;79911.16;5090237;28;19947;-85
2022/03/19 00:50:36;;;;;;;;;;;;;;;-144.19;100.00;79913.13;5073370;28;19960;-86
2022/03/19 00:53:03;;;;;;;;;;;;;;;-144.19;100.00;79922.97;5090610;28;19931;-86
2022/03/19 00:55:30;;;;;;;;;;;;;;;-144.19;100.00;79930.88;5073131;28;19925;-85
2022/03/19 00:57:57;;;;;;;;;;;;;;;-144.19;100.00;79938.75;5075681;28;20367;-85
2022/03/19 01:00:25;;;;;;;;;;;;;;;-144.19;100.00;79926.94;5051182;28;19971;-85
2022/03/19 01:02:52;;;;;;;;;;;;;;;-144.19;100.00;79930.88;5051266;28;19925;-86
2022/03/19 01:05:20;;;;;;;;;;;;;;;-144.19;100.00;79924.97;5050543;28;19924;-85
2022/03/19 01:07:48;;;;;;;;;;;;;;;-144.19;100.00;79930.88;5069485;28;20012;-85
2022/03/19 01:10:25;;;;;;;;;;;;;;;-144.19;100.00;79942.69;5070221;28;19955;-85
2022/03/19 01:12:53;;;;;;;;;;;;;;;-144.19;100.00;79934.81;5052294;28;19924;-86
2022/03/19 01:15:21;;;;;;;;;;;;;;;-144.19;100.00;79938.75;5067363;28;19951;-86
2022/03/19 01:17:48;;;;;;;;;;;;;;;-144.19;100.00;79926.94;5073313;28;19991;-85
2022/03/19 01:20:15;;;;;;;;;;;;;;;-144.19;100.00;79926.94;5090117;28;19931;-86
2022/03/19 01:22:43;;;;;;;;;;;;;;;-144.19;100.00;79930.88;5072645;28;19924;-86
2022/03/19 01:25:10;;;;;;;;;;;;;;;-144.19;100.00;79930.88;5072247;28;19925;-86
2022/03/19 01:27:37;;;;;;;;;;;;;;;-144.19;100.00;79930.88;5072005;28;19947;-86
2022/03/19 01:30:06;;;;;;;;;;;;;;;-144.19;100.00;79921.00;5032392;28;19925;-85
2022/03/19 01:32:34;;;;;;;;;;;;;;;-144.19;100.00;79926.94;5049065;28;19929;-86
2022/03/19 01:35:03;;;;;;;;;;;;;;;-144.19;100.00;79922.97;5066977;28;19932;-86
2022/03/19 01:37:30;;;;;;;;;;;;;;;-144.19;100.00;79922.97;5073022;28;19925;-85
2022/03/19 01:39:57;;;;;;;;;;;;;;;-144.19;100.00;79930.88;5072405;28;19925;-85
2022/03/19 01:42:29;;;;;;;;;;;;;;;-144.19;100.00;79924.97;5056870;28;19992;-86
2022/03/19 01:44:57;;;;;;;;;;;;;;;-144.19;100.00;79938.75;5056641;28;19925;-86
2022/03/19 01:47:28;;;;;;;;;;;;;;;-144.19;100.00;79942.69;5056538;28;19924;-86
2022/03/19 01:49:55;;;;;;;;;;;;;;;-144.19;100.00;79954.50;5073540;28;19968;-86
2022/03/19 01:52:22;;;;;;;;;;;;;;;-144.19;100.00;79946.63;5055432;28;19993;-85
2022/03/19 01:54:50;;;;;;;;;;;;;;;-144.19;100.00;79954.50;5054525;28;19988;-86
2022/03/19 01:57:18;;;;;;;;;;;;;;;-144.19;100.00;79956.47;5054458;28;19931;-86
2022/03/19 01:59:44;;;;;;;;;;;;;;;-144.19;100.00;79960.41;5055010;28;19986;-86
2022/03/19 02:02:11;;;;;;;;;;;;;;;-144.19;100.00;79970.25;5073493;28;19929;-86
2022/03/19 02:04:39;;;;;;;;;;;;;;;-144.19;100.00;79976.19;5072689;28;19971;-85
2022/03/19 02:07:07;;;;;;;;;;;;;;;-144.19;100.00;79962.38;5071206;28;19984;-86
2022/03/19 02:09:34;;;;;;;;;;;;;;;-144.19;100.00;79980.13;5071396;28;20346;-86
2022/03/19 02:12:02;;;;;;;;;;;;;;;-144.19;100.00;79974.22;5079316;28;19924;-86
2022/03/19 02:14:29;;;;;;;;;;;;;;;-144.19;100.00;79972.25;5073943;28;19925;-86
2022/03/19 02:17:01;;;;;;;;;;;;;;;-144.19;100.00;79986.03;5073063;28;19928;-86
2022/03/19 02:19:27;;;;;;;;;;;;;;;-144.19;100.00;79989.97;5074816;28;19924;-86
2022/03/19 02:21:54;;;;;;;;;;;;;;;-144.19;100.00;79989.97;5092405;28;19966;-85
2022/03/19 02:27:06;;;;;;;;;;;;;;;-144.19;100.00;79999.81;5090673;28;19996;-86
2022/03/19 02:29:34;;;;;;;;;;;;;;;-144.19;100.00;80001.78;5074146;28;19925;-86
2022/03/19 02:32:02;;;;;;;;;;;;;;;-144.19;100.00;79989.97;5073933;28;19924;-86
2022/03/19 02:34:30;;;;;;;;;;;;;;;-144.19;100.00;79970.25;5086915;28;19931;-86
2022/03/19 02:36:57;;;;;;;;;;;;;;;-144.19;100.00;79982.09;5061569;28;19925;-86
2022/03/19 02:39:32;;;;;;;;;;;;;;;-144.19;100.00;79978.16;5069893;28;20275;-86
2022/03/19 02:42:00;;;;;;;;;;;;;;;-144.19;100.00;79989.97;5065787;28;19960;-85
2022/03/19 02:44:28;;;;;;;;;;;;;;;-144.19;100.00;80001.78;5063807;28;19924;-85
2022/03/19 02:46:58;;;;;;;;;;;;;;;-144.19;100.00;79989.97;5064598;28;19935;-85
2022/03/19 02:49:26;;;;;;;;;;;;;;;-144.19;100.00;80001.78;5052059;28;19925;-86
2022/03/19 02:51:53;;;;;;;;;;;;;;;-144.19;100.00;79995.88;5068402;28;19932;-85
2022/03/19 02:54:24;;;;;;;;;;;;;;;-144.19;100.00;79993.91;5052793;28;19925;-86
2022/03/19 02:56:53;;;;;;;;;;;;;;;-144.19;100.00;79991.94;5054236;28;19925;-86
2022/03/19 02:59:23;;;;;;;;;;;;;;;-144.19;100.00;79997.84;5053977;28;19988;-86
2022/03/19 03:01:57;;;;;;;;;;;;;;;-144.19;100.00;80001.78;5053220;28;19925;-86
2022/03/19 03:04:25;;;;;;;;;;;;;;;-144.19;100.00;79989.97;5055435;28;19952;-85
2022/03/19 03:06:53;;;;;;;;;;;;;;;-144.19;100.00;79995.88;5054955;28;19925;-86
2022/03/19 03:09:21;;;;;;;;;;;;;;;-144.19;100.00;79986.03;5055335;28;19926;-85
2022/03/19 03:11:58;;;;;;;;;;;;;;;-144.19;100.00;79989.97;5072025;28;19925;-86
2022/03/19 03:14:25;;;;;;;;;;;;;;;-144.19;100.00;79993.91;5082565;28;19924;-86
2022/03/19 03:16:53;;;;;;;;;;;;;;;-144.19;100.00;79984.06;5074561;28;19924;-85
2022/03/19 03:19:20;;;;;;;;;;;;;;;-144.19;100.00;79980.13;5074665;28;19974;-85
2022/03/19 03:21:47;;;;;;;;;;;;;;;-144.19;100.00;79986.03;5092814;28;19924;-85
2022/03/19 03:24:14;;;;;;;;;;;;;;;-144.19;100.00;79982.09;5091628;28;19924;-86
2022/03/19 03:26:42;;;;;;;;;;;;;;;-144.19;100.00;79982.09;5091898;28;19924;-85
2022/03/19 03:29:14;;;;;;;;;;;;;;;-144.19;100.00;79986.03;5059766;28;19925;-86
2022/03/19 03:31:41;;;;;;;;;;;;;;;-144.19;100.00;79989.97;5072265;28;19919;-86
2022/03/19 03:34:08;;;;;;;;;;;;;;;-144.19;100.00;79993.91;5054229;28;19968;-86
2022/03/19 03:36:35;;;;;;;;;;;;;;;-144.19;100.00;79995.88;5054663;28;19933;-86
2022/03/19 03:39:02;;;;;;;;;;;;;;;-144.19;100.00;79997.84;5052057;28;19925;-86
2022/03/19 03:41:29;;;;;;;;;;;;;;;-144.19;100.00;79997.84;5053002;28;19925;-85
2022/03/19 03:43:56;;;;;;;;;;;;;;;-144.19;100.00;79997.84;5084375;28;19924;-85
2022/03/19 03:46:22;;;;;;;;;;;;;;;-144.19;100.00;79995.88;5072923;28;19924;-85
2022/03/19 03:48:49;;;;;;;;;;;;;;;-144.19;100.00;80001.78;5059106;28;19924;-85
2022/03/19 03:51:16;;;;;;;;;;;;;;;-144.19;100.00;80005.72;5072831;28;19928;-85
2022/03/19 03:53:49;;;;;;;;;;;;;;;-144.19;100.00;80001.78;5073999;28;19925;-86
2022/03/19 03:56:16;;;;;;;;;;;;;;;-144.19;100.00;79999.81;5074532;28;19948;-85
2022/03/19 03:58:43;;;;;;;;;;;;;;;-144.19;100.00;79989.97;5090540;28;19913;-86
2022/03/19 04:01:14;;;;;;;;;;;;;;;-144.19;100.00;80001.78;5073489;28;19963;-85
2022/03/19 04:03:41;;;;;;;;;;;;;;;-144.19;100.00;80001.78;5069609;28;19951;-85
2022/03/19 04:06:08;;;;;;;;;;;;;;;-144.19;100.00;80013.59;5050946;28;19935;-85
2022/03/19 04:08:35;;;;;;;;;;;;;;;-144.19;100.00;80019.53;5050593;28;20349;-85
2022/03/19 04:11:02;;;;;;;;;;;;;;;-144.19;100.00;80023.47;5050996;28;19924;-85
2022/03/19 04:13:29;;;;;;;;;;;;;;;-144.19;100.00;80021.50;5070281;28;19924;-85
2022/03/19 04:15:56;;;;;;;;;;;;;;;-144.19;100.00;80031.34;5071300;28;19964;-85
2022/03/19 04:18:23;;;;;;;;;;;;;;;-144.19;100.00;80027.41;5071683;28;19935;-85
2022/03/19 04:20:50;;;;;;;;;;;;;;;-144.19;100.00;80021.50;5069750;28;19935;-85
2022/03/19 04:23:17;;;;;;;;;;;;;;;-144.19;100.00;80033.31;5070019;28;19928;-85
2022/03/19 04:25:43;;;;;;;;;;;;;;;-144.19;100.00;80041.19;5071531;28;20140;-85
2022/03/19 04:28:12;;;;;;;;;;;;;;;-144.19;100.00;80053.00;5072858;28;19928;-86
2022/03/19 04:30:39;;;;;;;;;;;;;;;-144.19;100.00;80053.00;5089167;28;19924;-85
2022/03/19 04:33:07;;;;;;;;;;;;;;;-144.19;100.00;80045.13;5089365;28;20402;-86
2022/03/19 04:38:34;;;;;;;;;;;;;;;-144.19;100.00;80051.03;5053237;22;19960;-85
2022/03/19 04:41:00;;;;;;;;;;;;;;;-144.19;100.00;80049.06;5035731;28;19924;-82
2022/03/19 04:43:27;;;;;;;;;;;;;;;-144.19;100.00;80056.94;5035544;28;19932;-82
2022/03/19 04:45:53;;;;;;;;;;;;;;;-144.19;100.00;80060.88;5054436;28;19925;-82
2022/03/19 04:48:19;;;;;;;;;;;;;;;-144.19;100.00;80070.75;5035693;28;19978;-81
2022/03/19 04:50:47;;;;;;;;;;;;;;;-144.19;100.00;80076.66;5034302;28;19964;-82
2022/03/19 04:53:14;;;;;;;;;;;;;;;-144.19;100.00;80080.59;5033037;28;20256;-83
2022/03/19 04:55:40;;;;;;;;;;;;;;;-144.19;100.00;80080.59;5016517;28;19929;-82
2022/03/19 04:58:07;;;;;;;;;;;;;;;-144.19;100.00;80092.41;5015652;28;20213;-84
2022/03/19 05:00:34;;;;;;;;;;;;;;;-144.19;100.00;80098.31;5016031;28;19932;-83
2022/03/19 05:03:03;;;;;;;;;;;;;;;-144.19;100.00;80098.31;5033305;28;19979;-84
2022/03/19 05:05:30;;;;;;;;;;;;;;;-144.19;100.00;80108.19;5015805;28;19925;-82
2022/03/19 05:07:56;;;;;;;;;;;;;;;-144.19;100.00;80112.13;5015707;28;19936;-83
2022/03/19 05:13:09;;;;;;;;;;;;;;;-144.19;100.00;80112.13;5036848;28;20342;-82
2022/03/19 05:15:35;;;;;;;;;;;;;;;-144.19;100.00;80121.97;5023903;28;19994;-82
2022/03/19 05:18:02;;;;;;;;;;;;;;;-144.19;100.00;80129.84;5057492;28;20011;-82
2022/03/19 05:20:33;;;;;;;;;;;;;;;-144.19;100.00;80131.81;5056618;28;20039;-84
2022/03/19 05:22:59;;;;;;;;;;;;;;;-144.19;100.00;80131.81;5056545;28;19984;-83
2022/03/19 05:25:25;;;;;;;;;;;;;;;-144.19;100.00;80141.66;5057459;28;19928;-82
2022/03/19 05:27:52;;;;;;;;;;;;;;;-144.19;100.00;80135.75;5057243;28;19925;-83
2022/03/19 05:30:19;;;;;;;;;;;;;;;-144.19;100.00;80151.50;5052375;28;20020;-82
2022/03/19 05:32:46;;;;;;;;;;;;;;;-144.19;100.00;80143.63;5036374;28;19929;-82
2022/03/19 05:35:12;;;;;;;;;;;;;;;-144.19;100.00;80133.78;5035499;28;20371;-83
2022/03/19 05:37:39;;;;;;;;;;;;;;;-144.19;100.00;80151.50;5038584;28;19925;-83
2022/03/19 05:40:06;;;;;;;;;;;;;;;-144.19;100.00;80151.50;5056359;28;20709;-83
2022/03/19 05:42:32;;;;;;;;;;;;;;;-144.19;100.00;80143.63;5037699;28;19952;-82
2022/03/19 05:44:59;;;;;;;;;;;;;;;-144.19;100.00;80159.41;5055125;28;19924;-82
2022/03/19 05:47:25;;;;;;;;;;;;;;;-144.19;100.00;80163.34;5038591;28;19925;-86
2022/03/19 05:49:51;;;;;;;;;;;;;;;-144.19;100.00;80169.25;5054162;28;20371;-83
2022/03/19 05:52:18;;;;;;;;;;;;;;;-144.19;100.00;80169.25;5053793;28;19924;-86
2022/03/19 05:54:44;;;;;;;;;;;;;;;-144.19;100.00;80171.22;5038115;28;20410;-82
2022/03/19 05:57:10;;;;;;;;;;;;;;;-144.19;100.00;80179.09;5056434;28;19925;-84
2022/03/19 05:59:36;;;;;;;;;;;;;;;-144.19;100.00;80177.13;5053141;28;19935;-81
2022/03/19 06:02:05;;;;;;;;;;;;;;;-144.19;100.00;80175.16;5054979;28;20362;-81
2022/03/19 06:04:35;;;;;;;;;;;;;;;-144.19;100.00;80171.22;5055978;28;19967;-83
2022/03/19 06:07:02;;;;;;;;;;;;;;;-144.19;100.00;80175.16;5055497;28;20346;-82
2022/03/19 06:09:28;;;;;;;;;;;;;;;-144.19;100.00;80183.03;5037867;28;19925;-82
2022/03/19 06:11:54;;;;;;;;;;;;;;;-144.19;100.00;80183.03;5054846;28;19952;-83
2022/03/19 06:14:21;;;;;;;;;;;;;;;-144.19;100.00;80171.22;5038131;28;19931;-81
2022/03/19 06:16:49;;;;;;;;;;;;;;;-144.19;100.00;80175.16;5055839;28;19939;-83
2022/03/19 06:19:16;;;;;;;;;;;;;;;-144.19;100.00;80171.22;5024908;28;19925;-82
2022/03/19 06:21:42;;;;;;;;;;;;;;;-144.19;100.00;80171.22;5034968;28;19925;-83
2022/03/19 06:24:14;;;;;;;;;;;;;;;-144.19;100.00;80173.19;5035018;28;19931;-84
2022/03/19 06:26:41;;;;;;;;;;;;;;;-144.19;100.00;80175.16;5035704;28;19951;-84
2022/03/19 06:29:07;;;;;;;;;;;;;;;-144.19;100.00;80163.34;5017216;28;19929;-82
2022/03/19 06:31:33;;;;;;;;;;;;;;;-144.19;100.00;80167.28;5017900;28;19932;-82
2022/03/19 06:34:00;;;;;;;;;;;;;;;-144.19;100.00;80163.34;5027054;28;19948;-84
2022/03/19 06:39:12;;;;;;;;;;;;;;;-144.19;100.00;80159.41;5035308;28;19925;-82
2022/03/19 06:41:39;;;;;;;;;;;;;;;-144.19;100.00;80157.44;5035310;28;19925;-82
2022/03/19 06:44:05;;;;;;;;;;;;;;;-144.19;100.00;80147.56;5016886;28;19925;-83
2022/03/19 06:46:32;;;;;;;;;;;;;;;-144.19;100.00;80147.56;5017348;28;20225;-83
2022/03/19 06:48:58;;;;;;;;;;;;;;;-144.19;100.00;80141.66;5018000;28;19929;-81
2022/03/19 06:51:24;;;;;;;;;;;;;;;-144.19;100.00;80147.56;5017313;28;19936;-81
2022/03/19 06:53:51;;;;;;;;;;;;;;;-144.19;100.00;80145.59;5016768;28;20350;-82
2022/03/19 06:56:17;;;;;;;;;;;;;;;-144.19;100.00;80139.69;5034956;28;19976;-82
2022/03/19 06:58:43;;;;;;;;;;;;;;;-144.19;100.00;80145.59;5032197;28;19940;-83
2022/03/19 07:01:15;;;;;;;;;;;;;;;-144.19;100.00;80139.69;5032781;28;19925;-82
2022/03/19 07:03:43;;;;;;;;;;;;;;;-144.19;100.00;80125.91;5015800;28;19935;-82
2022/03/19 07:06:10;;;;;;;;;;;;;;;-144.19;100.00;80120.00;5045843;28;20383;-82
2022/03/19 07:08:56;;;;;;;;;;;;;;;-144.19;100.00;80121.97;5035087;28;19999;-83
2022/03/19 07:11:23;;;;;;;;;;;;;;;-144.19;100.00;80112.13;5035606;28;20312;-83
2022/03/19 07:13:49;;;;;;;;;;;;;;;-144.19;100.00;80106.19;5035037;28;20425;-82
2022/03/19 07:16:15;;;;;;;;;;;;;;;-144.19;100.00;80100.28;5053638;28;19936;-81
2022/03/19 07:18:42;;;;;;;;;;;;;;;-144.19;100.00;80094.38;5041232;28;19941;-82
2022/03/19 07:21:09;;;;;;;;;;;;;;;-144.19;100.00;80090.44;5035263;28;19925;-83
2022/03/19 07:23:35;;;;;;;;;;;;;;;-144.19;100.00;80076.66;5052659;28;19935;-83
2022/03/19 07:26:02;;;;;;;;;;;;;;;-144.19;100.00;80064.84;5053137;28;19932;-83
2022/03/19 07:28:28;;;;;;;;;;;;;;;-144.19;100.00;80060.88;5047980;28;20751;-83
2022/03/19 07:30:56;;;;;;;;;;;;;;;-144.19;100.00;80045.13;5052067;28;19925;-84
2022/03/19 07:33:23;;;;;;;;;;;;;;;-144.19;100.00;80041.19;5049744;28;19924;-82
2022/03/19 07:35:50;;;;;;;;;;;;;;;-144.19;100.00;80037.25;5033446;28;19925;-82
2022/03/19 07:38:16;;;;;;;;;;;;;;;-144.19;100.00;80025.44;5014784;28;20457;-84
2022/03/19 07:43:28;;;;;;;;;;;;;;;-144.19;100.00;80003.75;5030458;28;19933;-83
2022/03/19 07:45:55;;;;;;;;;;;;;;;-144.19;100.00;79984.06;5031430;28;19925;-83
2022/03/19 07:48:21;;;;;;;;;;;;;;;-144.19;100.00;79978.16;5015782;28;19931;-84
2022/03/19 07:50:53;;;;;;;;;;;;;;;-144.19;100.00;79966.31;5039463;28;20023;-83
2022/03/19 07:53:20;;;;;;;;;;;;;;;-144.19;100.00;79958.44;5036410;28;19936;-82
2022/03/19 07:55:46;;;;;;;;;;;;;;;-144.19;100.00;79946.63;5020435;28;19925;-85
2022/03/19 07:58:17;;;;;;;;;;;;;;;-144.19;100.00;79926.94;5039331;28;19939;-82
2022/03/19 08:00:43;;;;;;;;;;;;;;;-144.19;100.00;79926.94;5036341;28;19925;-82
2022/03/19 08:03:09;;;;;;;;;;;;;;;-144.19;100.00;79913.13;5018111;28;19999;-84
2022/03/19 08:05:36;;;;;;;;;;;;;;;-144.19;100.00;79901.31;5036947;28;20380;-82
2022/03/19 08:08:05;;;;;;;;;;;;;;;-144.19;100.00;79899.34;5031741;28;19936;-85
2022/03/19 08:10:32;;;;;;;;;;;;;;;-144.19;100.00;79887.53;5031217;28;19925;-84
2022/03/19 08:13:02;;;;;;;;;;;;;;;-144.19;100.00;79879.66;5031301;28;20054;-85
2022/03/19 08:15:28;;;;;;;;;;;;;;;-144.19;100.00;79867.81;5034023;28;19972;-83
2022/03/19 08:17:55;;;;;;;;;;;;;;;-144.19;100.00;79852.06;5041397;28;19925;-85
2022/03/19 08:20:21;;;;;;;;;;;;;;;-144.19;100.00;79836.31;5045211;28;19925;-86
2022/03/19 08:22:48;;;;;;;;;;;;;;;-144.19;100.00;79834.34;5050523;28;19929;-85
2022/03/19 08:25:20;;;;;;;;;;;;;;;-144.19;100.00;79818.56;5035532;28;19958;-82
2022/03/19 08:27:46;;;;;;;;;;;;;;;-144.19;100.00;79808.72;5033474;28;19925;-83
2022/03/19 08:30:12;;;;;;;;;;;;;;;-144.19;100.00;79800.84;5033686;28;19939;-83
2022/03/19 08:32:39;;;;;;;;;;;;;;;-144.19;100.00;79791.00;5045086;28;19932;-83
2022/03/19 08:35:05;;;;;;;;;;;;;;;-144.19;100.00;79777.19;5030286;28;19925;-84
2022/03/19 08:37:32;;;;;;;;;;;;;;;-144.19;100.00;79765.38;5051758;28;19925;-83
2022/03/19 08:40:17;;;;;;;;;;;;;;;-144.19;100.00;79757.50;5050656;28;19935;-84
2022/03/19 08:42:52;;;;;;;;;;;;;;;-144.19;100.00;79735.84;5050649;28;19924;-84
2022/03/19 08:45:22;;;;;;;;;;;;;;;-144.19;100.00;79724.00;5033427;28;19932;-84
2022/03/19 08:47:48;;;;;;;;;;;;;;;-144.19;100.00;79722.03;5025628;28;19929;-83
2022/03/19 08:50:15;;;;;;;;;;;;;;;-144.19;100.00;79698.41;5031426;28;20279;-85
2022/03/19 08:52:41;;;;;;;;;;;;;;;-144.19;100.00;79678.72;5030626;28;19925;-85
2022/03/19 08:55:08;;;;;;;;;;;;;;;-144.19;100.00;79666.88;5031633;28;19925;-83
2022/03/19 08:57:34;;;;;;;;;;;;;;;-144.19;100.00;79645.22;5029574;28;20356;-83
2022/03/19 09:00:01;;;;;;;;;;;;;;;-144.19;100.00;79635.38;5033883;28;19925;-82
2022/03/19 09:02:39;;;;;;;;;;;;;;;-144.19;100.00;79619.59;5049639;28;19925;-85
2022/03/19 09:05:06;;;;;;;;;;;;;;;-144.19;100.00;79609.75;5051647;28;20361;-85
2022/03/19 09:07:32;;;;;;;;;;;;;;;-144.19;100.00;79597.94;5051002;28;20574;-84
2022/03/19 09:09:59;;;;;;;;;;;;;;;-144.19;100.00;79588.09;5050452;28;19925;-83
2022/03/19 09:12:33;;;;;;;;;;;;;;;-144.19;100.00;79584.16;5049658;28;19925;-84
2022/03/19 09:15:00;;;;;;;;;;;;;;;-144.19;100.00;79566.41;5033545;28;19932;-84
2022/03/19 09:17:26;;;;;;;;;;;;;;;-144.19;100.00;79560.50;5033224;28;20309;-84
2022/03/19 09:19:52;;;;;;;;;;;;;;;-144.19;100.00;79536.88;5032842;28;19925;-82
2022/03/19 09:22:18;;;;;;;;;;;;;;;-144.19;100.00;79527.03;5013007;28;20299;-84
2022/03/19 09:24:45;;;;;;;;;;;;;;;-144.19;100.00;79513.22;5031281;28;19925;-85
2022/03/19 09:27:12;;;;;;;;;;;;;;;-144.19;100.00;79477.78;5031187;28;19925;-85
2022/03/19 09:29:38;;;;;;;;;;;;;;;-144.19;100.00;79485.66;5013955;28;19931;-84
2022/03/19 09:32:05;;;;;;;;;;;;;;;-144.19;100.00;79458.06;5030249;28;20375;-84
2022/03/19 09:34:31;;;;;;;;;;;;;;;-144.19;100.00;79454.13;5020907;28;19925;-85
2022/03/19 09:36:57;;;;;;;;;;;;;;;-144.19;100.00;79418.69;5011089;28;19925;-85
2022/03/19 09:39:24;;;;;;;;;;;;;;;-144.19;100.00;79414.75;5020128;28;19925;-86
2022/03/19 09:41:50;;;;;;;;;;;;;;;-144.19;100.00;79402.91;5021868;28;19932;-84
2022/03/19 09:44:17;;;;;;;;;;;;;;;-144.19;100.00;79395.03;5045647;28;19924;-84
2022/03/19 09:46:46;;;;;;;;;;;;;;;-144.19;100.00;79367.47;5030853;28;20349;-85
2022/03/19 09:49:12;;;;;;;;;;;;;;;-144.19;100.00;79349.75;5020604;28;19948;-84
2022/03/19 09:51:44;;;;;;;;;;;;;;;-144.19;100.00;79349.75;5033594;28;19929;-86
2022/03/19 09:54:11;;;;;;;;;;;;;;;-144.19;100.00;79335.94;5027420;28;19935;-84
2022/03/19 09:56:37;;;;;;;;;;;;;;;-144.19;100.00;79308.38;5049249;28;20730;-83
2022/03/19 09:59:04;;;;;;;;;;;;;;;-144.19;100.00;79272.91;5043026;28;19925;-84
2022/03/19 10:01:31;;;;;;;;;;;;;;;-144.19;100.00;79280.78;5034817;28;19931;-85
2022/03/19 10:04:02;;;;;;;;;;;;;;;-144.19;100.00;79261.09;5035536;28;19956;-85
2022/03/19 10:09:17;;;;;;;;;;;;;;;-144.19;100.00;79229.59;5053391;28;19928;-83
2022/03/19 10:11:47;;;;;;;;;;;;;;;-144.19;100.00;79221.72;5055293;28;20321;-81
2022/03/19 10:14:18;;;;;;;;;;;;;;;-144.19;100.00;79172.47;5037611;28;19925;-81
2022/03/19 10:16:47;;;;;;;;;;;;;;;-144.19;95.43;79194.13;5037663;28;19925;-84
2022/03/19 10:19:14;;;;;;;;;;;;;;;-144.19;89.35;79160.66;5037693;28;19929;-82
2022/03/19 10:21:41;;;;;;;;;;;;;;;-144.19;86.63;79144.88;5034335;28;19947;-83
2022/03/19 10:24:08;;;;;;;;;;;;;;;-144.19;86.34;79129.13;5032483;28;20395;-82
2022/03/19 10:26:37;;;;;;;;;;;;;;;-144.19;85.81;79048.38;5055719;28;19925;-84
2022/03/19 10:29:04;;;;;;;;;;;;;;;-144.19;79.54;79026.72;5037471;28;20662;-85
2022/03/19 10:31:35;;;;;;;;;;;;;;;-144.19;77.88;79026.72;5055218;28;19931;-84
2022/03/19 10:34:03;;;;;;;;;;;;;;;-144.19;77.36;78932.16;5047355;28;19925;-83
2022/03/19 10:36:31;;;;;;;;;;;;;;;-144.19;74.76;78955.81;5035121;28;19932;-84
2022/03/19 10:38:58;;;;;;;;;;;;;;;-144.19;74.27;78926.25;5053922;28;19932;-82
2022/03/19 10:41:24;;;;;;;;;;;;;;;-144.19;71.61;78977.47;5035799;28;19929;-82
2022/03/19 10:43:51;;;;;;;;;;;;;;;-144.19;76.10;78902.63;5035791;28;19932;-83
2022/03/19 10:46:18;;;;;;;;;;;;;;;-144.19;72.57;78938.06;5036209;28;19931;-84
2022/03/19 10:48:52;;;;;;;;;;;;;;;-144.19;73.68;78772.63;5032958;28;19924;-83
2022/03/19 10:51:20;;;;;;;;;;;;;;;-144.19;75.32;78772.63;5045972;28;19929;-84
2022/03/19 10:53:48;;;;;;;;;;;;;;;-144.19;68.09;78760.81;5014949;28;19936;-84
2022/03/19 10:56:15;;;;;;;;;;;;;;;-144.19;66.71;78784.44;5034307;28;19925;-85
2022/03/19 10:58:59;;;;;;;;;;;;;;;-144.19;66.77;78697.78;5045629;28;19947;-84
2022/03/19 11:01:26;;;;;;;;;;;;;;;-144.19;62.88;78685.97;5020765;28;19925;-84
2022/03/19 11:03:55;;;;;;;;;;;;;;;-144.19;64.09;78589.47;5048036;28;19935;-85
2022/03/19 11:06:23;;;;;;;;;;;;;;;-144.19;58.85;78609.16;5053440;28;20024;-83
2022/03/19 11:08:51;;;;;;;;;;;;;;;-144.19;59.17;78579.63;5053026;28;20015;-85
2022/03/19 11:11:18;;;;;;;;;;;;;;;-144.19;59.95;78463.44;5036745;28;19924;-84
2022/03/19 11:13:46;;;;;;;;;;;;;;;-144.19;56.95;78599.31;5034821;28;19954;-82
2022/03/19 11:16:13;;;;;;;;;;;;;;;-144.19;56.91;78603.25;5035729;28;19932;-83
2022/03/19 11:18:42;;;;;;;;;;;;;;;-144.19;54.83;78532.38;5053560;28;19925;-84
2022/03/19 11:21:09;;;;;;;;;;;;;;;-144.19;56.92;78601.28;5045222;28;20020;-84
2022/03/19 11:23:41;;;;;;;;;;;;;;;-144.19;56.30;78512.66;5041478;28;19925;-84
2022/03/19 11:26:10;;;;;;;;;;;;;;;-144.19;52.28;78463.44;5044440;28;20421;-81
2022/03/19 11:28:36;;;;;;;;;;;;;;;-144.19;52.01;78516.59;5040951;28;20307;-84
2022/03/19 11:31:08;;;;;;;;;;;;;;;-144.19;52.26;78343.31;5039542;28;19936;-84
2022/03/19 11:33:36;;;;;;;;;;;;;;;-144.19;49.85;78451.63;5039456;28;20327;-84
2022/03/19 11:36:04;;;;;;;;;;;;;;;-144.19;47.86;78548.13;5025251;28;19928;-84
2022/03/19 11:38:31;;;;;;;;;;;;;;;-144.19;48.32;78485.09;5044343;28;19967;-84
2022/03/19 11:40:58;;;;;;;;;;;;;;;-144.19;47.20;78611.13;5031244;28;19932;-82
2022/03/19 11:43:24;;;;;;;;;;;;;;;-144.19;47.75;78567.81;5051659;28;20010;-81
2022/03/19 11:45:56;;;;;;;;;;;;;;;-144.19;47.93;78571.75;5039605;28;20311;-85
2022/03/19 11:48:35;;;;;;;;;;;;;;;-144.19;49.42;78461.47;5043249;28;20357;-84
2022/03/19 11:51:24;;;;;;;;;;;;;;;-144.19;48.72;78441.78;5042866;28;19931;-83
2022/03/19 11:54:01;;;;;;;;;;;;;;;-144.19;48.72;78516.59;5024630;28;19933;-83
2022/03/19 11:56:42;;;;;;;;;;;;;;;-144.19;45.44;78508.72;5042736;28;19935;-82
2022/03/19 11:59:15;;;;;;;;;;;;;;;-144.19;48.15;78429.97;5042311;28;19929;-85
2022/03/19 12:01:54;;;;;;;;;;;;;;;-144.19;45.32;78441.78;5046828;28;19975;-81
2022/03/19 12:04:21;;;;;;;;;;;;;;;-144.19;46.42;78518.56;5041771;28;19960;-83
2022/03/19 12:06:52;;;;;;;;;;;;;;;-144.19;46.38;78611.13;5021146;28;19929;-84
2022/03/19 12:09:19;;;;;;;;;;;;;;;-144.19;47.37;78410.25;5043348;28;19936;-84
2022/03/19 12:12:06;;;;;;;;;;;;;;;-144.19;44.47;78335.44;5040922;28;19932;-83
2022/03/19 12:14:36;;;;;;;;;;;;;;;-144.19;44.13;78296.03;5025469;28;19932;-84
2022/03/19 12:17:23;;;;;;;;;;;;;;;-144.19;44.33;78333.47;5051253;28;20595;-84
2022/03/19 12:20:07;;;;;;;;;;;;;;;-144.19;44.00;78445.72;5050155;28;19931;-83
2022/03/19 12:22:38;;;;;;;;;;;;;;;-144.19;44.25;78463.44;5048139;28;19924;-83
2022/03/19 12:25:10;;;;;;;;;;;;;;;-144.19;43.66;78366.94;5024578;28;19935;-85
2022/03/19 12:27:37;;;;;;;;;;;;;;;-144.19;44.58;78410.25;5042664;28;19992;-86
2022/03/19 12:30:07;;;;;;;;;;;;;;;-144.19;43.77;78410.25;5047404;28;19932;-84
2022/03/19 12:32:49;;;;;;;;;;;;;;;-144.19;44.18;78491.00;5044235;28;19925;-84
2022/03/19 12:35:16;;;;;;;;;;;;;;;-144.19;46.11;78357.09;5049746;28;19979;-84
2022/03/19 12:37:47;;;;;;;;;;;;;;;-144.19;44.14;78443.75;5042808;28;19924;-83
2022/03/19 12:40:16;;;;;;;;;;;;;;;-144.19;46.45;78428.00;5042398;28;19940;-83